Structure, Texas
Current Conditions -  °F | °C
As of 2:35 PM on Friday 28 Nov 2014 (Local Time) from KEDC Reporting Station
Clear Clear  
Wind Chill: 22°   Ceiling: Unl
Heat Index: 22°   Visibility: 10mi
Dew Point:   Wind: 16mph
Humidity: 43%   Direction: 200°SSW
Pressure: 30.14"   Gusts: 22mph
Location:  30.2988°N, 97.3874°W
Report Text: KEDC 282035Z AUTO 20014G19KT 10SM CLR 22/09 A3014 RMK AO2
Loading
Personal Weather Stations






























Interactive Weather Map New forecast layout! Learn more

10-Day Weather Forecast

Advertisements
Track Severe Weather on mobile